createdAt,value
2017-06-26T00:00:01.248Z,1004.98
2017-06-26T00:01:13.512Z,1005.01
2017-06-26T00:02:26.012Z,1005.03
2017-06-26T00:03:38.237Z,1005.06
2017-06-26T00:04:50.758Z,1005.08
2017-06-26T00:06:02.977Z,1005.08
2017-06-26T00:07:14.912Z,1005.11
2017-06-26T00:08:27.392Z,1005.08
2017-06-26T00:09:39.908Z,1005.03
2017-06-26T00:10:52.454Z,1005
2017-06-26T00:12:04.673Z,1005.02
2017-06-26T00:13:16.905Z,1005.06
2017-06-26T00:14:29.446Z,1005.05
2017-06-26T00:15:41.967Z,1005.09
2017-06-26T00:16:54.474Z,1005.09
2017-06-26T00:18:06.405Z,1005.05
2017-06-26T00:19:18.037Z,1005.05
2017-06-26T00:20:30.251Z,1005.05
2017-06-26T00:21:42.793Z,1005.03
2017-06-26T00:22:55.346Z,1004.98
2017-06-26T00:24:07.885Z,1004.97
2017-06-26T00:25:20.435Z,1005
2017-06-26T00:26:32.634Z,1004.94
2017-06-26T00:27:45.131Z,1004.93
2017-06-26T00:28:57.678Z,1004.89
2017-06-26T00:30:10.218Z,1004.89
2017-06-26T00:31:22.515Z,1004.84
2017-06-26T00:32:35.035Z,1004.84
2017-06-26T00:33:47.535Z,1004.88
2017-06-26T00:35:00.070Z,1004.84
2017-06-26T00:36:12.279Z,1004.85
2017-06-26T00:37:24.822Z,1004.88
2017-06-26T00:38:37.065Z,1004.85
2017-06-26T00:39:49.610Z,1004.84
2017-06-26T00:41:02.059Z,1004.8
2017-06-26T00:42:14.257Z,1004.8
2017-06-26T00:43:26.805Z,1004.78
2017-06-26T00:44:39.348Z,1004.81
2017-06-26T00:45:51.568Z,1004.77
2017-06-26T00:47:04.104Z,1004.79
2017-06-26T00:48:16.309Z,1004.8
2017-06-26T00:49:28.531Z,1004.78
2017-06-26T00:50:41.052Z,1004.8
2017-06-26T00:51:53.598Z,1004.81
2017-06-26T00:53:05.847Z,1004.8
2017-06-26T00:54:18.395Z,1004.82
2017-06-26T00:55:30.633Z,1004.87
2017-06-26T00:56:42.832Z,1004.87
2017-06-26T00:57:55.370Z,1004.9
2017-06-26T00:59:07.899Z,1004.89
2017-06-26T01:00:19.847Z,1004.92
2017-06-26T01:01:32.361Z,1004.91
2017-06-26T01:02:44.583Z,1004.96
2017-06-26T01:03:57.096Z,1004.89
2017-06-26T01:05:09.317Z,1004.86
2017-06-26T01:06:21.541Z,1004.92
2017-06-26T01:07:34.042Z,1004.89
2017-06-26T01:08:46.585Z,1004.84
2017-06-26T01:09:59.138Z,1004.83
2017-06-26T01:11:11.679Z,1004.88
2017-06-26T01:12:23.618Z,1004.94
2017-06-26T01:13:35.826Z,1004.96
2017-06-26T01:14:48.371Z,1004.98
2017-06-26T01:16:00.889Z,1005.01
2017-06-26T01:17:13.384Z,1004.98
2017-06-26T01:18:25.888Z,1005
2017-06-26T01:19:38.406Z,1005.03
2017-06-26T01:20:50.939Z,1005.06
2017-06-26T01:22:03.446Z,1005.07
2017-06-26T01:23:15.997Z,1005.03
2017-06-26T01:24:28.530Z,1005.04
2017-06-26T01:25:41.059Z,1004.98
2017-06-26T01:26:53.602Z,1004.96
2017-06-26T01:28:05.840Z,1004.9
2017-06-26T01:29:18.088Z,1004.89
2017-06-26T01:30:30.593Z,1004.85
2017-06-26T01:31:42.836Z,1004.83
2017-06-26T01:32:55.056Z,1004.79
2017-06-26T01:34:07.583Z,1004.78
2017-06-26T01:35:20.119Z,1004.76
2017-06-26T01:36:32.643Z,1004.69
2017-06-26T01:37:44.883Z,1004.68
2017-06-26T01:38:57.389Z,1004.59
2017-06-26T01:40:09.913Z,1004.6
2017-06-26T01:41:22.130Z,1004.58
2017-06-26T01:42:34.352Z,1004.58
2017-06-26T01:43:46.594Z,1004.56
2017-06-26T01:44:59.118Z,1004.56
2017-06-26T01:46:11.639Z,1004.6
2017-06-26T01:47:23.864Z,1004.54
2017-06-26T01:48:36.082Z,1004.52
2017-06-26T01:49:48.600Z,1004.53
2017-06-26T01:51:00.527Z,1004.6
2017-06-26T01:52:12.745Z,1004.61
2017-06-26T01:53:24.987Z,1004.59
2017-06-26T01:54:37.535Z,1004.63
2017-06-26T01:55:50.070Z,1004.62
2017-06-26T01:57:02.275Z,1004.57
2017-06-26T01:58:14.772Z,1004.57
2017-06-26T01:59:27.317Z,1004.55
2017-06-26T02:00:39.837Z,1004.57
2017-06-26T02:01:52.333Z,1004.55
2017-06-26T02:03:04.530Z,1004.53
2017-06-26T02:04:16.746Z,1004.54
2017-06-26T02:05:29.292Z,1004.57
2017-06-26T02:06:41.796Z,1004.59
2017-06-26T02:07:54.330Z,1004.6
2017-06-26T02:09:06.840Z,1004.62
2017-06-26T02:10:19.097Z,1004.61
2017-06-26T02:11:31.580Z,1004.54
2017-06-26T02:12:44.114Z,1004.52
2017-06-26T02:13:56.672Z,1004.55
2017-06-26T02:15:08.880Z,1004.56
2017-06-26T02:16:21.406Z,1004.55
2017-06-26T02:17:33.955Z,1004.5
2017-06-26T02:18:46.497Z,1004.5
2017-06-26T02:19:59.048Z,1004.46
2017-06-26T02:21:11.593Z,1004.43
2017-06-26T02:22:24.116Z,1004.44
2017-06-26T02:23:36.635Z,1004.41
2017-06-26T02:24:49.126Z,1004.38
2017-06-26T02:26:01.377Z,1004.35
2017-06-26T02:27:13.918Z,1004.36
2017-06-26T02:28:26.475Z,1004.34
2017-06-26T02:29:39.010Z,1004.32
2017-06-26T02:30:51.543Z,1004.27
2017-06-26T02:32:04.078Z,1004.23
2017-06-26T02:33:16.331Z,1004.21
2017-06-26T02:34:28.865Z,1004.24
2017-06-26T02:35:41.372Z,1004.17
2017-06-26T02:36:53.890Z,1004.18
2017-06-26T02:38:06.460Z,1004.14
2017-06-26T02:39:18.361Z,1004.07
2017-06-26T02:40:30.898Z,1004.1
2017-06-26T02:41:43.451Z,1004.06
2017-06-26T02:42:55.943Z,1004.04
2017-06-26T02:44:08.440Z,1003.98
2017-06-26T02:45:20.962Z,1003.94
2017-06-26T02:46:33.486Z,1003.95
2017-06-26T02:47:45.728Z,1003.99
2017-06-26T02:48:58.229Z,1003.98
2017-06-26T02:50:10.751Z,1003.95
2017-06-26T02:51:23.291Z,1003.95
2017-06-26T02:52:35.520Z,1003.92
2017-06-26T02:53:48.058Z,1003.95
2017-06-26T02:55:00.307Z,1003.93
2017-06-26T02:56:12.545Z,1003.95
2017-06-26T02:57:25.073Z,1003.96
2017-06-26T02:58:37.321Z,1003.92
2017-06-26T02:59:49.839Z,1003.97
2017-06-26T03:01:02.387Z,1003.99
2017-06-26T03:02:14.907Z,1003.98
2017-06-26T03:03:27.151Z,1003.95
2017-06-26T03:04:39.680Z,1003.94
2017-06-26T03:05:52.191Z,1003.97
2017-06-26T03:07:04.439Z,1004.03
2017-06-26T03:08:16.961Z,1004.05
2017-06-26T03:09:29.500Z,1004.07
2017-06-26T03:10:42.046Z,1004.07
2017-06-26T03:11:54.625Z,1004.11
2017-06-26T03:13:07.168Z,1004.12
2017-06-26T03:14:19.713Z,1004.12
2017-06-26T03:15:32.239Z,1004.14
2017-06-26T03:16:44.786Z,1004.16
2017-06-26T03:17:57.328Z,1004.17
2017-06-26T03:19:09.900Z,1004.24
2017-06-26T03:20:22.460Z,1004.18
2017-06-26T03:21:34.989Z,1004.22
2017-06-26T03:22:47.513Z,1004.21
2017-06-26T03:24:00.308Z,1004.2
2017-06-26T03:25:12.859Z,1004.23
2017-06-26T03:26:25.396Z,1004.22
2017-06-26T03:27:37.622Z,1004.2
2017-06-26T03:28:50.159Z,1004.19
2017-06-26T03:30:02.402Z,1004.25
2017-06-26T03:31:14.933Z,1004.18
2017-06-26T03:32:27.151Z,1004.19
2017-06-26T03:33:39.678Z,1004.17
2017-06-26T03:34:52.221Z,1004.14
2017-06-26T03:36:04.769Z,1004.13
2017-06-26T03:37:16.719Z,1004.12
2017-06-26T03:38:29.256Z,1004.12
2017-06-26T03:39:41.477Z,1004.13
2017-06-26T03:40:54.002Z,1004.1
2017-06-26T03:42:06.547Z,1004.1
2017-06-26T03:43:19.085Z,1004.09
2017-06-26T03:44:31.603Z,1004.06
2017-06-26T03:45:44.357Z,1004.08
2017-06-26T03:46:56.884Z,1004.1
2017-06-26T03:48:09.404Z,1003.99
2017-06-26T03:49:21.937Z,1003.99
2017-06-26T03:50:34.168Z,1003.97
2017-06-26T03:51:46.715Z,1003.97
2017-06-26T03:52:59.236Z,1003.94
2017-06-26T03:54:11.730Z,1003.96
2017-06-26T03:55:24.269Z,1003.95
2017-06-26T03:56:36.812Z,1003.98
2017-06-26T03:57:49.333Z,1003.94
2017-06-26T03:59:01.854Z,1003.91
2017-06-26T04:00:14.385Z,1003.85
2017-06-26T04:01:26.657Z,1003.82
2017-06-26T04:02:39.478Z,1003.83
2017-06-26T04:03:51.999Z,1003.86
2017-06-26T04:05:04.519Z,1003.82
2017-06-26T04:06:16.754Z,1003.84
2017-06-26T04:07:29.275Z,1003.87
2017-06-26T04:08:41.807Z,1003.87
2017-06-26T04:09:54.059Z,1003.86
2017-06-26T04:11:06.270Z,1003.87
2017-06-26T04:12:18.804Z,1003.89
2017-06-26T04:13:30.762Z,1003.89
2017-06-26T04:14:43.287Z,1003.9
2017-06-26T04:15:55.821Z,1003.94
2017-06-26T04:17:07.751Z,1003.93
2017-06-26T04:18:20.592Z,1003.9
2017-06-26T04:19:33.120Z,1003.94
2017-06-26T04:20:45.667Z,1003.92
2017-06-26T04:21:58.211Z,1003.94
2017-06-26T04:23:10.433Z,1003.89
2017-06-26T04:24:22.055Z,1003.92
2017-06-26T04:25:34.600Z,1003.91
2017-06-26T04:26:47.145Z,1003.92
2017-06-26T04:27:59.713Z,1003.88
2017-06-26T04:29:11.944Z,1003.88
2017-06-26T04:30:24.476Z,1003.9
2017-06-26T04:31:37.004Z,1003.87
2017-06-26T04:32:49.522Z,1003.82
2017-06-26T04:34:02.070Z,1003.85
2017-06-26T04:35:14.606Z,1003.8
2017-06-26T04:36:27.135Z,1003.79
2017-06-26T04:37:39.659Z,1003.78
2017-06-26T04:38:52.217Z,1003.77
2017-06-26T04:40:04.676Z,1003.7
2017-06-26T04:41:16.896Z,1003.71
2017-06-26T04:42:29.445Z,1003.67
2017-06-26T04:43:41.965Z,1003.63
2017-06-26T04:44:54.502Z,1003.61
2017-06-26T04:46:07.047Z,1003.59
2017-06-26T04:47:18.680Z,1003.59
2017-06-26T04:48:30.922Z,1003.56
2017-06-26T04:49:43.465Z,1003.57
2017-06-26T04:50:55.987Z,1003.58
2017-06-26T04:52:08.528Z,1003.59
2017-06-26T04:53:21.078Z,1003.59
2017-06-26T04:54:33.576Z,1003.6
2017-06-26T04:55:46.119Z,1003.58
2017-06-26T04:56:58.358Z,1003.59
2017-06-26T04:58:10.915Z,1003.6
2017-06-26T04:59:23.177Z,1003.56
2017-06-26T05:00:35.732Z,1003.52
2017-06-26T05:01:48.227Z,1003.56
2017-06-26T05:03:00.747Z,1003.51
2017-06-26T05:04:13.244Z,1003.51
2017-06-26T05:05:25.778Z,1003.57
2017-06-26T05:06:38.011Z,1003.58
2017-06-26T05:07:50.582Z,1003.53
2017-06-26T05:09:02.242Z,1003.56
2017-06-26T05:10:14.473Z,1003.56
2017-06-26T05:11:26.988Z,1003.57
2017-06-26T05:12:39.512Z,1003.48
2017-06-26T05:13:51.737Z,1003.47
2017-06-26T05:15:04.271Z,1003.43
2017-06-26T05:16:16.792Z,1003.41
2017-06-26T05:17:29.291Z,1003.48
2017-06-26T05:18:41.516Z,1003.52
2017-06-26T05:19:53.768Z,1003.43
2017-06-26T05:21:05.730Z,1003.47
2017-06-26T05:22:17.995Z,1003.48
2017-06-26T05:23:30.833Z,1003.5
2017-06-26T05:24:43.388Z,1003.45
2017-06-26T05:25:55.892Z,1003.49
2017-06-26T05:27:08.089Z,1003.49
2017-06-26T05:28:20.589Z,1003.52
2017-06-26T05:29:32.780Z,1003.49
2017-06-26T05:30:45.275Z,1003.44
2017-06-26T05:31:57.781Z,1003.54
2017-06-26T05:33:09.717Z,1003.5
2017-06-26T05:34:22.242Z,1003.5
2017-06-26T05:35:34.785Z,1003.5
2017-06-26T05:36:47.030Z,1003.57
2017-06-26T05:37:59.532Z,1003.57
2017-06-26T05:39:11.751Z,1003.59
2017-06-26T05:40:23.986Z,1003.55
2017-06-26T05:41:36.210Z,1003.54
2017-06-26T05:42:48.714Z,1003.55
2017-06-26T05:44:01.259Z,1003.56
2017-06-26T05:45:13.730Z,1003.63
2017-06-26T05:46:25.968Z,1003.59
2017-06-26T05:47:38.202Z,1003.61
2017-06-26T05:48:50.739Z,1003.61
2017-06-26T05:50:02.954Z,1003.61
2017-06-26T05:51:15.460Z,1003.59
2017-06-26T05:52:28.003Z,1003.63
2017-06-26T05:53:40.226Z,1003.66
2017-06-26T05:54:52.750Z,1003.67
2017-06-26T05:56:04.986Z,1003.63
2017-06-26T05:57:17.240Z,1003.62
2017-06-26T05:58:29.789Z,1003.65
2017-06-26T05:59:42.349Z,1003.65
2017-06-26T06:00:54.894Z,1003.72
2017-06-26T06:02:07.445Z,1003.72
2017-06-26T06:03:19.671Z,1003.68
2017-06-26T06:04:32.206Z,1003.73
2017-06-26T06:05:44.760Z,1003.68
2017-06-26T06:06:57.303Z,1003.67
2017-06-26T06:08:09.827Z,1003.65
2017-06-26T06:09:21.745Z,1003.64
2017-06-26T06:10:34.266Z,1003.61
2017-06-26T06:11:46.780Z,1003.57
2017-06-26T06:12:59.311Z,1003.59
2017-06-26T06:14:11.846Z,1003.65
2017-06-26T06:15:23.755Z,1003.65
2017-06-26T06:16:35.691Z,1003.66
2017-06-26T06:17:48.445Z,1003.63
2017-06-26T06:19:00.979Z,1003.69
2017-06-26T06:20:13.500Z,1003.79
2017-06-26T06:21:26.010Z,1003.81
2017-06-26T06:22:38.253Z,1003.89
2017-06-26T06:23:50.824Z,1003.96
2017-06-26T06:25:03.359Z,1003.86
2017-06-26T06:26:15.570Z,1003.96
2017-06-26T06:27:27.837Z,1003.97
2017-06-26T06:28:40.080Z,1004.03
2017-06-26T06:29:52.279Z,1004.14
2017-06-26T06:31:04.838Z,1004.17
2017-06-26T06:32:17.044Z,1004.28
2017-06-26T06:33:29.289Z,1004.26
2017-06-26T06:34:41.834Z,1004.35
2017-06-26T06:35:54.032Z,1004.36
2017-06-26T06:37:06.269Z,1004.33
2017-06-26T06:38:18.501Z,1004.38
2017-06-26T06:39:30.973Z,1004.38
2017-06-26T06:40:43.532Z,1004.38
2017-06-26T06:41:56.063Z,1004.47
2017-06-26T06:43:07.709Z,1004.49
2017-06-26T06:44:20.226Z,1004.65
2017-06-26T06:45:32.739Z,1004.55
2017-06-26T06:46:45.274Z,1004.63
2017-06-26T06:47:57.768Z,1004.63
2017-06-26T06:49:10.010Z,1004.65
2017-06-26T06:50:22.537Z,1004.6
2017-06-26T06:51:35.028Z,1004.71
2017-06-26T06:52:47.553Z,1004.69
2017-06-26T06:54:00.065Z,1004.71
2017-06-26T06:55:12.311Z,1004.73
2017-06-26T06:56:24.838Z,1004.79
2017-06-26T06:57:37.106Z,1004.78
2017-06-26T06:58:49.648Z,1004.79
2017-06-26T07:00:02.152Z,1004.75
2017-06-26T07:01:14.950Z,1004.78
2017-06-26T07:02:27.469Z,1004.82
2017-06-26T07:03:40.029Z,1004.81
2017-06-26T07:04:52.557Z,1004.84
2017-06-26T07:06:04.795Z,1004.9
2017-06-26T07:07:17.027Z,1004.92
2017-06-26T07:08:29.300Z,1004.97
2017-06-26T07:09:41.794Z,1004.97
2017-06-26T07:10:54.313Z,1005.03
2017-06-26T07:12:06.811Z,1005.03
2017-06-26T07:13:19.032Z,1005
2017-06-26T07:14:30.966Z,1005.01
2017-06-26T07:15:43.474Z,1005.04
2017-06-26T07:16:56.015Z,1005.07
2017-06-26T07:18:08.567Z,1005.04
2017-06-26T07:19:20.815Z,1005.01
2017-06-26T07:20:33.057Z,1005.03
2017-06-26T07:21:45.579Z,1004.97
2017-06-26T07:22:57.801Z,1004.9
2017-06-26T07:24:09.725Z,1004.91
2017-06-26T07:25:21.965Z,1004.87
2017-06-26T07:26:34.208Z,1004.88
2017-06-26T07:27:46.457Z,1004.91
2017-06-26T07:28:58.680Z,1004.9
2017-06-26T07:30:11.198Z,1004.94
2017-06-26T07:31:23.421Z,1005.16
2017-06-26T07:32:35.955Z,1005.21
2017-06-26T07:33:48.187Z,1005.17
2017-06-26T07:35:00.423Z,1005.3
2017-06-26T07:36:12.943Z,1005.23
2017-06-26T07:37:25.169Z,1005.27
2017-06-26T07:38:37.718Z,1005.4
2017-06-26T07:39:50.249Z,1005.36
2017-06-26T07:41:02.827Z,1005.34
2017-06-26T07:42:15.060Z,1005.46
2017-06-26T07:43:27.270Z,1005.58
2017-06-26T07:44:39.801Z,1005.5
2017-06-26T07:45:52.046Z,1005.57
2017-06-26T07:47:04.593Z,1005.55
2017-06-26T07:48:17.138Z,1005.59
2017-06-26T07:49:28.760Z,1005.5
2017-06-26T07:50:41.298Z,1005.43
2017-06-26T07:51:53.823Z,1005.56
2017-06-26T07:53:06.049Z,1005.66
2017-06-26T07:54:18.289Z,1005.65
2017-06-26T07:55:30.810Z,1005.64
2017-06-26T07:56:43.034Z,1005.38
2017-06-26T07:57:55.245Z,1005.48
2017-06-26T07:59:07.472Z,1005.57
2017-06-26T08:00:19.695Z,1005.61
2017-06-26T08:01:31.935Z,1005.74
2017-06-26T08:02:44.156Z,1005.86
2017-06-26T08:03:56.416Z,1005.83
2017-06-26T08:05:08.976Z,1005.82
2017-06-26T08:06:21.178Z,1005.75
2017-06-26T08:07:33.727Z,1005.67
2017-06-26T08:08:45.966Z,1005.73
2017-06-26T08:09:58.516Z,1005.84
2017-06-26T08:11:10.462Z,1005.79
2017-06-26T08:12:23.007Z,1005.85
2017-06-26T08:13:35.259Z,1005.87
2017-06-26T08:14:47.799Z,1005.89
2017-06-26T08:16:00.069Z,1005.94
2017-06-26T08:17:12.288Z,1005.98
2017-06-26T08:18:24.503Z,1006
2017-06-26T08:19:36.733Z,1006
2017-06-26T08:20:49.246Z,1005.98
2017-06-26T08:22:01.173Z,1006.03
2017-06-26T08:23:13.745Z,1005.98
2017-06-26T08:24:25.993Z,1005.96
2017-06-26T08:25:38.579Z,1005.9
2017-06-26T08:26:50.837Z,1005.87
2017-06-26T08:28:03.369Z,1005.96
2017-06-26T08:29:15.592Z,1006.05
2017-06-26T08:30:28.122Z,1005.94
2017-06-26T08:31:40.340Z,1005.9
2017-06-26T08:32:52.888Z,1005.8
2017-06-26T08:34:05.409Z,1005.91
2017-06-26T08:35:17.954Z,1006.05
2017-06-26T08:36:30.514Z,1006.07
2017-06-26T08:37:42.735Z,1006.22
2017-06-26T08:38:55.244Z,1006.06
2017-06-26T08:40:07.517Z,1006
2017-06-26T08:41:20.032Z,1006.06
2017-06-26T08:42:31.960Z,1006.15
2017-06-26T08:43:44.514Z,1006.22
2017-06-26T08:44:57.061Z,1006.31
2017-06-26T08:46:09.607Z,1006.32
2017-06-26T08:47:22.131Z,1006.25
2017-06-26T08:48:34.656Z,1006.3
2017-06-26T08:49:46.580Z,1006.37
2017-06-26T08:50:59.143Z,1006.34
2017-06-26T08:52:11.674Z,1006.33
2017-06-26T08:53:23.623Z,1006.35
2017-06-26T08:54:36.178Z,1006.31
2017-06-26T08:55:48.708Z,1006.4
2017-06-26T08:57:00.929Z,1006.33
2017-06-26T08:58:13.452Z,1006.32
2017-06-26T08:59:25.702Z,1006.3
2017-06-26T09:00:37.357Z,1006.36
2017-06-26T09:01:49.613Z,1006.35
2017-06-26T09:03:02.178Z,1006.32
2017-06-26T09:04:14.133Z,1006.47
2017-06-26T09:05:26.695Z,1006.38
2017-06-26T09:06:39.228Z,1006.41
2017-06-26T09:07:51.762Z,1006.56
2017-06-26T09:09:04.290Z,1006.63
2017-06-26T09:10:16.837Z,1006.56
2017-06-26T09:11:29.372Z,1006.56
2017-06-26T09:12:41.883Z,1006.61
2017-06-26T09:13:54.140Z,1006.55
2017-06-26T09:15:06.368Z,1006.56
2017-06-26T09:16:18.912Z,1006.6
2017-06-26T09:17:31.163Z,1006.61
2017-06-26T09:18:43.672Z,1006.54
2017-06-26T09:19:55.921Z,1006.53
2017-06-26T09:21:08.474Z,1006.58
2017-06-26T09:22:20.709Z,1006.51
2017-06-26T09:23:33.255Z,1006.44
2017-06-26T09:24:45.459Z,1006.44
2017-06-26T09:25:58.004Z,1006.53
2017-06-26T09:27:10.553Z,1006.4
2017-06-26T09:28:22.789Z,1006.33
2017-06-26T09:29:35.034Z,1006.44
2017-06-26T09:30:46.959Z,1006.43
2017-06-26T09:31:59.537Z,1006.48
2017-06-26T09:33:11.784Z,1006.31
2017-06-26T09:34:23.722Z,1006.31
2017-06-26T09:35:35.675Z,1006.4
2017-06-26T09:36:48.221Z,1006.18
2017-06-26T09:38:00.447Z,1006.22
2017-06-26T09:39:12.964Z,1006.23
2017-06-26T09:40:25.501Z,1006.18
2017-06-26T09:41:37.768Z,1006.12
2017-06-26T09:42:49.722Z,1006.14
2017-06-26T09:44:02.266Z,1006.25
2017-06-26T09:45:14.518Z,1006.18
2017-06-26T09:46:27.041Z,1006.26
2017-06-26T09:47:39.584Z,1006.18
2017-06-26T09:48:51.832Z,1006.28
2017-06-26T09:50:04.400Z,1006.38
2017-06-26T09:51:16.964Z,1006.25
2017-06-26T09:52:29.518Z,1006.24
2017-06-26T09:53:41.789Z,1006.41
2017-06-26T09:54:54.393Z,1006.57
2017-06-26T09:56:07.122Z,1006.46
2017-06-26T09:57:19.848Z,1006.35
2017-06-26T09:58:32.263Z,1006.38
2017-06-26T09:59:44.700Z,1006.29
2017-06-26T10:00:57.115Z,1006.43
2017-06-26T10:02:09.660Z,1006.3
2017-06-26T10:03:22.220Z,1006.39
2017-06-26T10:04:34.799Z,1006.34
2017-06-26T10:05:46.779Z,1006.42
2017-06-26T10:06:59.346Z,1006.55
2017-06-26T10:08:11.905Z,1006.43
2017-06-26T10:09:23.865Z,1006.55
2017-06-26T10:10:36.427Z,1006.44
2017-06-26T10:11:48.705Z,1006.46
2017-06-26T10:13:00.966Z,1006.46
2017-06-26T10:14:13.511Z,1006.43
2017-06-26T10:15:25.466Z,1006.54
2017-06-26T10:16:37.407Z,1006.66
2017-06-26T10:17:49.380Z,1006.77
2017-06-26T10:19:01.631Z,1006.72
2017-06-26T10:20:13.900Z,1006.76
2017-06-26T10:21:26.446Z,1006.66
2017-06-26T10:22:39.016Z,1006.38
2017-06-26T10:23:51.305Z,1006.59
2017-06-26T10:25:03.580Z,1006.73
2017-06-26T10:26:16.155Z,1006.92
2017-06-26T10:27:28.109Z,1006.8
2017-06-26T10:28:40.668Z,1006.63
2017-06-26T10:29:53.234Z,1006.81
2017-06-26T10:31:05.533Z,1006.86
2017-06-26T10:32:17.808Z,1006.76
2017-06-26T10:33:30.100Z,1006.76
2017-06-26T10:34:42.642Z,1006.79
2017-06-26T10:35:54.930Z,1006.76
2017-06-26T10:37:07.196Z,1006.73
2017-06-26T10:38:19.987Z,1006.88
2017-06-26T10:39:32.580Z,1006.91
2017-06-26T10:40:45.180Z,1006.92
2017-06-26T10:41:57.751Z,1006.65
2017-06-26T10:43:10.296Z,1006.87
2017-06-26T10:44:22.564Z,1007.11
2017-06-26T10:45:35.132Z,1007.08
2017-06-26T10:46:47.365Z,1006.76
2017-06-26T10:47:59.632Z,1006.72
2017-06-26T10:49:12.184Z,1006.74
2017-06-26T10:50:24.744Z,1006.75
2017-06-26T10:51:36.695Z,1006.79
2017-06-26T10:52:49.289Z,1006.6
2017-06-26T10:54:01.527Z,1006.6
2017-06-26T10:55:14.084Z,1006.63
2017-06-26T10:56:26.345Z,1006.62
2017-06-26T10:57:38.294Z,1006.83
2017-06-26T10:58:50.573Z,1006.88
2017-06-26T11:00:03.156Z,1006.86
2017-06-26T11:01:15.398Z,1006.78
2017-06-26T11:02:27.660Z,1006.7
2017-06-26T11:03:39.952Z,1006.81
2017-06-26T11:04:51.919Z,1006.8
2017-06-26T11:06:04.489Z,1006.78
2017-06-26T11:07:16.765Z,1006.74
2017-06-26T11:08:29.040Z,1006.66
2017-06-26T11:09:41.578Z,1006.6
2017-06-26T11:10:54.131Z,1006.72
2017-06-26T11:12:06.693Z,1006.86
2017-06-26T11:13:19.274Z,1006.91
2017-06-26T11:14:31.820Z,1006.91
2017-06-26T11:15:44.083Z,1006.92
2017-06-26T11:16:56.646Z,1006.84
2017-06-26T11:18:09.202Z,1006.74
2017-06-26T11:19:21.782Z,1006.75
2017-06-26T11:20:34.024Z,1006.71
2017-06-26T11:21:46.568Z,1006.72
2017-06-26T11:22:59.128Z,1006.79
2017-06-26T11:24:11.686Z,1006.9
2017-06-26T11:25:24.234Z,1006.88
2017-06-26T11:26:36.799Z,1006.85
2017-06-26T11:27:49.374Z,1006.73
2017-06-26T11:29:01.623Z,1006.67
2017-06-26T11:30:14.163Z,1006.69
2017-06-26T11:31:26.730Z,1006.67
2017-06-26T11:32:39.318Z,1006.75
2017-06-26T11:33:51.560Z,1006.87
2017-06-26T11:35:04.150Z,1006.82
2017-06-26T11:36:16.716Z,1006.69
2017-06-26T11:37:28.979Z,1006.68
2017-06-26T11:38:41.533Z,1006.59
2017-06-26T11:39:53.793Z,1006.61
2017-06-26T11:41:06.007Z,1006.57
2017-06-26T11:42:18.568Z,1006.64
2017-06-26T11:43:31.138Z,1006.67
2017-06-26T11:44:43.410Z,1006.56
2017-06-26T11:45:55.969Z,1006.53
2017-06-26T11:47:07.927Z,1006.54
2017-06-26T11:48:20.492Z,1006.62
2017-06-26T11:49:33.061Z,1006.81
2017-06-26T11:50:45.620Z,1006.81
2017-06-26T11:51:57.892Z,1006.71
2017-06-26T11:53:10.136Z,1006.7
2017-06-26T11:54:22.675Z,1006.9
2017-06-26T11:55:34.948Z,1006.99
2017-06-26T11:56:47.505Z,1006.94
2017-06-26T11:58:00.085Z,1006.72
2017-06-26T11:59:12.635Z,1006.44
2017-06-26T12:00:25.182Z,1006.32
2017-06-26T12:01:37.727Z,1006.36
2017-06-26T12:02:49.673Z,1006.35
2017-06-26T12:04:01.936Z,1006.46
2017-06-26T12:05:14.183Z,1006.42
2017-06-26T12:06:26.440Z,1006.47
2017-06-26T12:07:38.992Z,1006.53
2017-06-26T12:08:50.935Z,1006.5
2017-06-26T12:10:03.499Z,1006.54
2017-06-26T12:11:16.065Z,1006.53
2017-06-26T12:12:28.024Z,1006.49
2017-06-26T12:13:40.295Z,1006.58
2017-06-26T12:14:52.557Z,1006.68
2017-06-26T12:16:05.122Z,1006.6
2017-06-26T12:17:17.680Z,1006.72
2017-06-26T12:18:29.953Z,1006.76
2017-06-26T12:19:42.240Z,1006.76
2017-06-26T12:20:54.761Z,1006.72
2017-06-26T12:22:06.416Z,1006.75
2017-06-26T12:23:18.980Z,1006.85
2017-06-26T12:24:31.243Z,1006.75
2017-06-26T12:25:43.488Z,1006.83
2017-06-26T12:26:56.020Z,1006.69
2017-06-26T12:28:08.569Z,1006.54
2017-06-26T12:29:21.129Z,1006.47
2017-06-26T12:30:33.699Z,1006.46
2017-06-26T12:31:45.943Z,1006.42
2017-06-26T12:32:58.468Z,1006.41
2017-06-26T12:34:11.049Z,1006.31
2017-06-26T12:35:23.589Z,1006.23
2017-06-26T12:36:35.840Z,1006.33
2017-06-26T12:37:48.409Z,1006.24
2017-06-26T12:39:00.680Z,1006.28
2017-06-26T12:40:13.226Z,1006.29
2017-06-26T12:41:25.767Z,1006.32
2017-06-26T12:42:38.346Z,1006.28
2017-06-26T12:43:50.294Z,1006.31
2017-06-26T12:45:02.862Z,1006.34
2017-06-26T12:46:15.443Z,1006.26
2017-06-26T12:47:27.975Z,1006.34
2017-06-26T12:48:40.263Z,1006.39
2017-06-26T12:49:52.534Z,1006.36
2017-06-26T12:51:04.497Z,1006.33
2017-06-26T12:52:17.051Z,1006.31
2017-06-26T12:53:29.350Z,1006.13
2017-06-26T12:54:41.923Z,1006.23
2017-06-26T12:55:54.204Z,1006.18
2017-06-26T12:57:06.763Z,1006.23
2017-06-26T12:58:19.010Z,1006.37
2017-06-26T12:59:31.284Z,1006.37
2017-06-26T13:00:43.561Z,1006.21
2017-06-26T13:01:55.806Z,1006.26
2017-06-26T13:03:08.344Z,1006.33
2017-06-26T13:04:20.919Z,1006.44
2017-06-26T13:05:33.215Z,1006.57
2017-06-26T13:06:45.461Z,1006.7
2017-06-26T13:07:57.998Z,1006.5
2017-06-26T13:09:10.566Z,1006.48
2017-06-26T13:10:22.817Z,1006.5
2017-06-26T13:11:35.371Z,1006.42
2017-06-26T13:12:47.933Z,1006.47
2017-06-26T13:14:00.529Z,1006.4
2017-06-26T13:15:13.087Z,1006.39
2017-06-26T13:16:25.645Z,1006.38
2017-06-26T13:17:38.237Z,1006.39
2017-06-26T13:18:50.462Z,1006.52
2017-06-26T13:20:03.033Z,1006.56
2017-06-26T13:21:15.608Z,1006.61
2017-06-26T13:22:28.189Z,1006.61
2017-06-26T13:23:40.450Z,1006.67
2017-06-26T13:24:52.703Z,1006.67
2017-06-26T13:26:05.262Z,1006.68
2017-06-26T13:27:17.542Z,1006.72
2017-06-26T13:28:29.817Z,1006.75
2017-06-26T13:29:42.075Z,1006.79
2017-06-26T13:30:54.654Z,1006.85
2017-06-26T13:32:07.242Z,1006.83
2017-06-26T13:33:19.817Z,1006.77
2017-06-26T13:34:32.066Z,1006.67
2017-06-26T13:35:44.610Z,1006.67
2017-06-26T13:36:57.161Z,1006.68
2017-06-26T13:38:09.451Z,1006.72
2017-06-26T13:39:21.738Z,1006.7
2017-06-26T13:40:34.065Z,1006.68
2017-06-26T13:41:46.639Z,1006.66
2017-06-26T13:42:59.232Z,1006.64
2017-06-26T13:44:11.485Z,1006.67
2017-06-26T13:45:24.055Z,1006.68
2017-06-26T13:46:36.608Z,1006.7
2017-06-26T13:47:49.142Z,1006.7
2017-06-26T13:49:01.413Z,1006.74
2017-06-26T13:50:13.693Z,1006.69
2017-06-26T13:51:25.951Z,1006.71
2017-06-26T13:52:37.876Z,1006.74
2017-06-26T13:53:50.148Z,1006.72
2017-06-26T13:55:02.406Z,1006.69
2017-06-26T13:56:14.664Z,1006.8
2017-06-26T13:57:26.927Z,1006.78
2017-06-26T13:58:39.505Z,1006.72
2017-06-26T13:59:51.462Z,1006.74
2017-06-26T14:01:03.997Z,1006.94
2017-06-26T14:02:16.550Z,1006.86
2017-06-26T14:03:29.124Z,1006.85
2017-06-26T14:04:41.399Z,1006.9
2017-06-26T14:05:53.931Z,1007.04
2017-06-26T14:07:06.499Z,1007.11
2017-06-26T14:08:19.058Z,1007.09
2017-06-26T14:09:31.601Z,1006.8
2017-06-26T14:10:43.544Z,1006.71
2017-06-26T14:11:56.109Z,1006.72
2017-06-26T14:13:08.695Z,1006.68
2017-06-26T14:14:21.257Z,1006.69
2017-06-26T14:15:33.198Z,1006.72
2017-06-26T14:16:45.474Z,1006.74
2017-06-26T14:17:58.025Z,1006.83
2017-06-26T14:19:10.290Z,1006.92
2017-06-26T14:20:22.526Z,1006.93
2017-06-26T14:21:34.759Z,1006.91
2017-06-26T14:22:47.332Z,1006.97
2017-06-26T14:23:59.279Z,1006.95
2017-06-26T14:25:11.837Z,1006.93
2017-06-26T14:26:24.067Z,1007.03
2017-06-26T14:27:36.604Z,1007.02
2017-06-26T14:28:49.158Z,1007.04
2017-06-26T14:30:01.400Z,1007
2017-06-26T14:31:13.971Z,1006.98
2017-06-26T14:32:26.249Z,1007.02
2017-06-26T14:33:38.776Z,1007.01
2017-06-26T14:34:51.053Z,1007.01
2017-06-26T14:36:03.313Z,1007.01
2017-06-26T14:37:16.179Z,1006.99
2017-06-26T14:38:28.729Z,1006.98